createdAt,value
2023-04-07T00:00:42.200Z,99.90
2023-04-07T00:03:16.303Z,99.90
2023-04-07T00:05:43.666Z,99.90
2023-04-07T00:08:17.184Z,99.90
2023-04-07T00:10:44.245Z,92.50
2023-04-07T00:13:18.139Z,99.90
2023-04-07T00:15:45.239Z,67.50
2023-04-07T00:18:19.148Z,54.10
2023-04-07T00:20:53.182Z,57.60
2023-04-07T00:23:27.147Z,41.30
2023-04-07T00:25:54.395Z,29.70
2023-04-07T00:28:28.180Z,19.00
2023-04-07T00:30:56.437Z,1.00
2023-04-07T00:33:30.150Z,1.00
2023-04-07T00:36:05.169Z,1.00
2023-04-07T00:38:39.175Z,1.00
2023-04-07T00:41:06.453Z,1.00
2023-04-07T00:43:33.725Z,1.00
2023-04-07T00:46:08.193Z,1.00
2023-04-07T00:48:36.975Z,1.00
2023-04-07T00:51:12.149Z,1.00
2023-04-07T00:53:39.580Z,1.00
2023-04-07T00:56:20.174Z,1.00
2023-04-07T00:58:54.001Z,1.00
2023-04-07T01:01:38.204Z,1.00
2023-04-07T01:04:21.546Z,1.00
2023-04-07T01:07:00.161Z,1.00
2023-04-07T01:09:46.163Z,1.00
2023-04-07T01:12:31.262Z,1.00
2023-04-07T01:15:15.140Z,1.00
2023-04-07T01:17:59.830Z,1.00
2023-04-07T01:20:39.164Z,1.00
2023-04-07T01:23:08.925Z,1.00
2023-04-07T01:26:11.187Z,1.00
2023-04-07T01:29:34.114Z,5.20
2023-04-07T01:32:13.170Z,50.80
2023-04-07T01:34:42.256Z,99.90
2023-04-07T01:37:17.201Z,99.90
2023-04-07T01:39:53.191Z,99.90
2023-04-07T01:42:29.145Z,99.90
2023-04-07T01:44:58.160Z,99.90
2023-04-07T01:47:37.211Z,99.90
2023-04-07T01:50:12.205Z,99.90
2023-04-07T01:52:47.172Z,99.90
2023-04-07T01:55:21.209Z,99.90
2023-04-07T01:58:02.197Z,99.90
2023-04-07T02:00:36.163Z,99.90
2023-04-07T02:03:27.445Z,99.90
2023-04-07T02:06:00.649Z,99.90
2023-04-07T02:08:37.128Z,99.90
2023-04-07T02:11:05.891Z,99.90
2023-04-07T02:13:42.162Z,99.90
2023-04-07T02:16:17.218Z,99.90
2023-04-07T02:18:54.203Z,99.90
2023-04-07T02:21:29.149Z,99.90
2023-04-07T02:24:03.152Z,99.90
2023-04-07T02:26:44.178Z,99.90
2023-04-07T02:29:18.135Z,99.90
2023-04-07T02:31:45.237Z,99.90
2023-04-07T02:34:12.257Z,99.90
2023-04-07T02:36:46.183Z,99.90
2023-04-07T02:39:20.208Z,99.90
2023-04-07T02:41:54.220Z,99.90
2023-04-07T02:44:21.220Z,99.90
2023-04-07T02:46:55.185Z,99.90
2023-04-07T02:49:29.329Z,99.90
2023-04-07T02:52:03.158Z,99.90
2023-04-07T02:54:37.170Z,99.90
2023-04-07T02:57:17.201Z,1.00
2023-04-07T02:59:58.240Z,1.00
2023-04-07T03:02:25.734Z,1.00
2023-04-07T03:05:00.175Z,1.00
2023-04-07T03:07:34.158Z,1.00
2023-04-07T03:10:08.149Z,1.00
2023-04-07T03:12:41.179Z,1.00
2023-04-07T03:15:16.567Z,1.00
2023-04-07T03:17:51.247Z,1.00
2023-04-07T03:20:18.451Z,1.00
2023-04-07T03:22:54.188Z,1.00
2023-04-07T03:25:21.772Z,1.00
2023-04-07T03:27:48.864Z,1.00
2023-04-07T03:30:23.177Z,1.00
2023-04-07T03:32:50.221Z,1.00
2023-04-07T03:35:24.163Z,1.00
2023-04-07T03:37:51.271Z,1.00
2023-04-07T03:40:25.136Z,1.00
2023-04-07T03:42:59.153Z,1.00
2023-04-07T03:45:26.529Z,1.00
2023-04-07T03:48:01.178Z,1.00
2023-04-07T03:50:35.169Z,1.00
2023-04-07T03:53:09.187Z,1.00
2023-04-07T03:55:37.244Z,1.00
2023-04-07T03:58:17.170Z,1.00
2023-04-07T04:00:44.562Z,1.00
2023-04-07T04:03:18.443Z,1.00
2023-04-07T04:05:45.631Z,1.00
2023-04-07T04:08:19.194Z,1.00
2023-04-07T04:10:46.352Z,1.00
2023-04-07T04:13:20.183Z,1.00
2023-04-07T04:15:55.260Z,1.00
2023-04-07T04:18:22.393Z,1.00
2023-04-07T04:20:57.208Z,1.00
2023-04-07T04:23:24.199Z,1.00
2023-04-07T04:25:58.179Z,1.00
2023-04-07T04:28:32.171Z,99.90
2023-04-07T04:31:06.194Z,99.90
2023-04-07T04:33:40.204Z,99.90
2023-04-07T04:36:14.175Z,99.90
2023-04-07T04:38:48.225Z,99.90
2023-04-07T04:41:22.229Z,99.90
2023-04-07T04:43:49.328Z,99.90
2023-04-07T04:46:27.467Z,99.90
2023-04-07T04:49:01.449Z,99.90
2023-04-07T04:51:28.469Z,99.90
2023-04-07T04:54:02.177Z,99.90
2023-04-07T04:56:36.188Z,99.90
2023-04-07T04:59:18.152Z,99.90
2023-04-07T05:01:52.252Z,99.90
2023-04-07T05:04:19.606Z,99.90
2023-04-07T05:06:53.178Z,99.90
2023-04-07T05:09:20.431Z,99.90
2023-04-07T05:11:54.185Z,99.90
2023-04-07T05:14:21.476Z,99.90
2023-04-07T05:16:55.171Z,1.00
2023-04-07T05:19:29.188Z,1.00
2023-04-07T05:21:56.613Z,1.00
2023-04-07T05:24:34.223Z,1.00
2023-04-07T05:27:02.040Z,1.00
2023-04-07T05:29:36.219Z,1.00
2023-04-07T05:32:06.076Z,1.00
2023-04-07T05:34:40.198Z,1.00
2023-04-07T05:37:07.442Z,1.00
2023-04-07T05:39:41.293Z,1.00
2023-04-07T05:42:08.891Z,1.00
2023-04-07T05:45:03.518Z,1.00
2023-04-07T05:47:32.113Z,1.00
2023-04-07T05:50:07.362Z,1.00
2023-04-07T05:52:35.104Z,99.90
2023-04-07T05:55:09.334Z,99.90
2023-04-07T05:57:51.336Z,1.00
2023-04-07T06:00:25.440Z,1.00
2023-04-07T06:02:59.641Z,99.90
2023-04-07T06:05:27.968Z,99.90
2023-04-07T06:08:02.327Z,1.00
2023-04-07T06:10:30.001Z,1.00
2023-04-07T06:13:04.312Z,1.00
2023-04-07T06:15:31.798Z,1.00
2023-04-07T06:17:59.438Z,1.00
2023-04-07T06:20:34.384Z,99.90
2023-04-07T06:23:08.250Z,99.90
2023-04-07T06:25:43.242Z,99.90
2023-04-07T06:28:10.984Z,1.00
2023-04-07T06:30:45.454Z,1.00
2023-04-07T06:33:12.947Z,1.00
2023-04-07T06:35:48.314Z,99.90
2023-04-07T06:38:16.184Z,99.90
2023-04-07T06:40:50.304Z,1.00
2023-04-07T06:43:17.931Z,1.00
2023-04-07T06:45:52.345Z,47.80
2023-04-07T06:48:19.898Z,1.00
2023-04-07T06:50:56.343Z,1.00
2023-04-07T06:53:24.115Z,99.90
2023-04-07T06:55:58.274Z,99.90
2023-04-07T06:58:39.310Z,99.90
2023-04-07T07:01:14.394Z,99.90
2023-04-07T07:03:42.129Z,1.00
2023-04-07T07:06:18.383Z,1.00
2023-04-07T07:08:53.537Z,1.00
2023-04-07T07:11:21.185Z,1.00
2023-04-07T07:13:55.303Z,1.00
2023-04-07T07:16:30.334Z,1.00
2023-04-07T07:18:58.037Z,99.90
2023-04-07T07:21:32.275Z,99.90
2023-04-07T07:24:02.640Z,99.90
2023-04-07T07:26:45.494Z,99.90
2023-04-07T07:29:13.152Z,99.90
2023-04-07T07:31:47.322Z,99.90
2023-04-07T07:34:21.296Z,99.90
2023-04-07T07:36:56.402Z,99.90
2023-04-07T07:39:24.253Z,87.80
2023-04-07T07:41:58.281Z,5.70
2023-04-07T07:44:32.668Z,25.60
2023-04-07T07:47:00.912Z,1.00
2023-04-07T07:49:35.368Z,1.00
2023-04-07T07:52:02.996Z,1.00
2023-04-07T07:54:37.378Z,1.00
2023-04-07T07:57:24.361Z,1.00
2023-04-07T07:59:58.295Z,18.20
2023-04-07T08:02:37.375Z,28.10
2023-04-07T08:05:11.364Z,1.00
2023-04-07T08:07:39.316Z,2.10
2023-04-07T08:10:13.279Z,12.00
2023-04-07T08:12:40.983Z,1.90
2023-04-07T08:15:17.300Z,8.90
2023-04-07T08:17:44.973Z,1.00
2023-04-07T08:20:20.361Z,12.00
2023-04-07T08:22:49.146Z,12.70
2023-04-07T08:25:24.332Z,2.20
2023-04-07T08:27:58.395Z,1.00
2023-04-07T08:30:26.005Z,1.00
2023-04-07T08:32:59.492Z,1.00
2023-04-07T08:35:33.288Z,1.00
2023-04-07T08:38:07.496Z,1.00
2023-04-07T08:40:35.234Z,1.00
2023-04-07T08:43:16.443Z,1.00
2023-04-07T08:45:46.972Z,1.00
2023-04-07T08:48:24.318Z,1.00
2023-04-07T08:51:00.320Z,1.00
2023-04-07T08:53:57.356Z,1.00
2023-04-07T08:56:32.498Z,1.00
2023-04-07T08:59:08.511Z,1.00
2023-04-07T09:01:43.573Z,1.00
2023-04-07T09:04:11.502Z,1.00
2023-04-07T09:06:46.402Z,1.00
2023-04-07T09:09:15.445Z,1.00
2023-04-07T09:11:49.489Z,1.00
2023-04-07T09:14:19.742Z,1.00
2023-04-07T09:16:54.305Z,1.00
2023-04-07T09:19:23.169Z,1.00
2023-04-07T09:21:59.248Z,1.00
2023-04-07T09:24:31.904Z,1.00
2023-04-07T09:27:26.313Z,1.00
2023-04-07T09:30:22.269Z,1.00
2023-04-07T09:32:49.502Z,1.00
2023-04-07T09:35:23.371Z,1.00
2023-04-07T09:38:17.275Z,1.00
2023-04-07T09:40:57.501Z,1.00
2023-04-07T09:43:31.263Z,1.00
2023-04-07T09:46:19.128Z,1.00
2023-04-07T09:48:53.525Z,1.00
2023-04-07T09:51:21.421Z,1.00
2023-04-07T09:53:58.328Z,1.00
2023-04-07T09:56:27.235Z,1.00
2023-04-07T09:59:08.287Z,1.00
2023-04-07T10:01:36.403Z,1.00
2023-04-07T10:04:12.519Z,1.00
2023-04-07T10:06:39.875Z,1.00
2023-04-07T10:09:14.258Z,1.00
2023-04-07T10:11:42.742Z,1.00
2023-04-07T10:14:18.256Z,1.00
2023-04-07T10:16:56.278Z,1.00
2023-04-07T10:19:24.891Z,1.00
2023-04-07T10:22:01.347Z,1.00
2023-04-07T10:24:52.273Z,1.00
2023-04-07T10:27:40.296Z,1.00
2023-04-07T10:30:22.308Z,1.00
2023-04-07T10:33:00.331Z,1.00
2023-04-07T10:35:35.435Z,1.00
2023-04-07T10:38:11.857Z,1.00
2023-04-07T10:40:48.278Z,1.00
2023-04-07T10:43:48.385Z,1.00
2023-04-07T10:46:22.302Z,1.00
2023-04-07T10:49:18.891Z,1.00
2023-04-07T10:52:12.217Z,1.00
2023-04-07T10:54:47.266Z,1.00
2023-04-07T10:57:35.262Z,1.00
2023-04-07T11:00:17.345Z,1.00
2023-04-07T11:02:51.429Z,1.00
2023-04-07T11:05:30.263Z,1.00
2023-04-07T11:07:59.512Z,1.00
2023-04-07T11:10:34.262Z,1.00
2023-04-07T11:13:07.638Z,1.00
2023-04-07T11:15:44.287Z,1.00
2023-04-07T11:18:23.500Z,1.00
2023-04-07T11:21:05.261Z,1.00
2023-04-07T11:23:44.120Z,1.00
2023-04-07T11:26:21.296Z,1.00
2023-04-07T11:29:01.312Z,1.00
2023-04-07T11:31:31.603Z,1.00
2023-04-07T11:34:11.267Z,1.00
2023-04-07T11:36:48.280Z,1.00
2023-04-07T11:39:30.278Z,1.00
2023-04-07T11:41:59.049Z,1.00
2023-04-07T11:44:33.324Z,1.00
2023-04-07T11:47:10.355Z,1.00
2023-04-07T11:49:53.305Z,1.00
2023-04-07T11:52:21.118Z,1.00
2023-04-07T11:54:58.344Z,1.00
2023-04-07T11:57:45.288Z,1.00
2023-04-07T12:00:21.340Z,1.00
2023-04-07T12:02:48.614Z,1.00
2023-04-07T12:05:23.269Z,1.00
2023-04-07T12:07:55.683Z,1.00
2023-04-07T12:10:33.320Z,1.00
2023-04-07T12:13:02.588Z,1.00
2023-04-07T12:15:36.324Z,1.00
2023-04-07T12:18:03.983Z,1.00
2023-04-07T12:20:31.886Z,1.00
2023-04-07T12:23:07.332Z,1.00
2023-04-07T12:25:47.284Z,1.00
2023-04-07T12:28:21.367Z,1.00
2023-04-07T12:30:49.531Z,1.00
2023-04-07T12:33:23.308Z,1.00
2023-04-07T12:35:57.429Z,1.00
2023-04-07T12:38:31.345Z,1.00
2023-04-07T12:41:03.709Z,1.00
2023-04-07T12:43:39.805Z,1.00
2023-04-07T12:46:14.366Z,1.00
2023-04-07T12:48:48.346Z,1.00
2023-04-07T12:51:23.361Z,1.00
2023-04-07T12:53:57.326Z,1.00
2023-04-07T12:56:24.900Z,1.00
2023-04-07T12:59:05.325Z,1.00
2023-04-07T13:01:48.933Z,1.00
2023-04-07T13:04:24.500Z,1.00
2023-04-07T13:06:51.740Z,1.00
2023-04-07T13:09:25.291Z,1.00
2023-04-07T13:11:52.320Z,1.00
2023-04-07T13:14:26.516Z,1.00
2023-04-07T13:16:53.615Z,1.00
2023-04-07T13:19:27.327Z,1.00
2023-04-07T13:21:54.893Z,1.00
2023-04-07T13:24:30.320Z,1.00
2023-04-07T13:26:57.987Z,1.00
2023-04-07T13:29:31.458Z,1.00
2023-04-07T13:32:09.662Z,1.00
2023-04-07T13:34:44.319Z,1.00
2023-04-07T13:37:11.530Z,1.00
2023-04-07T13:39:45.328Z,1.00
2023-04-07T13:42:23.367Z,1.00
2023-04-07T13:44:51.120Z,1.00
2023-04-07T13:47:28.540Z,1.00
2023-04-07T13:49:56.012Z,1.00
2023-04-07T13:52:30.358Z,1.00
2023-04-07T13:54:57.843Z,1.00
2023-04-07T13:57:34.347Z,1.00
2023-04-07T14:00:08.348Z,1.00
2023-04-07T14:02:35.914Z,8.70
2023-04-07T14:05:09.302Z,68.60
2023-04-07T14:07:43.325Z,99.90
2023-04-07T14:10:17.340Z,99.90
2023-04-07T14:12:44.417Z,99.90
2023-04-07T14:15:18.506Z,99.90
2023-04-07T14:17:45.653Z,1.00
2023-04-07T14:20:12.980Z,1.00
2023-04-07T14:22:46.343Z,99.90
2023-04-07T14:25:22.554Z,99.90
2023-04-07T14:27:49.595Z,99.90
2023-04-07T14:30:23.351Z,1.00
2023-04-07T14:32:50.630Z,1.00
2023-04-07T14:35:24.390Z,1.00
2023-04-07T14:37:53.015Z,47.80
2023-04-07T14:40:26.308Z,99.90
2023-04-07T14:43:06.846Z,99.90
2023-04-07T14:45:42.485Z,99.90
2023-04-07T14:48:16.321Z,1.00
2023-04-07T14:50:59.019Z,1.00
2023-04-07T14:53:40.403Z,1.00
2023-04-07T14:56:14.307Z,1.00
2023-04-07T14:58:54.330Z,1.00
2023-04-07T15:01:28.391Z,1.00
2023-04-07T15:03:55.675Z,3.60
2023-04-07T15:06:23.743Z,90.80
2023-04-07T15:08:57.301Z,99.90
2023-04-07T15:11:24.643Z,1.00
2023-04-07T15:13:58.341Z,1.00
2023-04-07T15:16:35.405Z,1.00
2023-04-07T15:19:09.361Z,1.00
2023-04-07T15:21:43.306Z,99.90
2023-04-07T15:24:10.391Z,99.90
2023-04-07T15:26:44.440Z,1.00
2023-04-07T15:29:11.714Z,23.20
2023-04-07T15:31:45.431Z,1.00
2023-04-07T15:34:19.361Z,1.00
2023-04-07T15:36:46.529Z,1.00
2023-04-07T15:39:21.324Z,1.00
2023-04-07T15:41:55.348Z,1.00
2023-04-07T15:44:29.349Z,99.90
2023-04-07T15:47:03.460Z,99.90
2023-04-07T15:49:37.371Z,99.90
2023-04-07T15:52:07.570Z,99.90
2023-04-07T15:54:44.356Z,99.90
2023-04-07T15:57:11.785Z,1.00
2023-04-07T15:59:52.352Z,99.90
2023-04-07T16:02:19.662Z,99.90
2023-04-07T16:04:54.390Z,99.90
2023-04-07T16:07:24.523Z,99.90
2023-04-07T16:09:58.403Z,99.90
2023-04-07T16:12:25.490Z,1.00
2023-04-07T16:15:01.883Z,1.00
2023-04-07T16:17:38.472Z,1.00
2023-04-07T16:20:17.361Z,1.00
2023-04-07T16:22:57.413Z,1.00
2023-04-07T16:25:31.496Z,99.90
2023-04-07T16:28:05.399Z,99.90
2023-04-07T16:30:32.525Z,44.70
2023-04-07T16:33:07.379Z,1.00
2023-04-07T16:35:41.424Z,1.00
2023-04-07T16:38:08.486Z,1.00
2023-04-07T16:40:47.890Z,1.00
2023-04-07T16:43:20.880Z,1.00
2023-04-07T16:46:03.427Z,1.00
2023-04-07T16:48:30.560Z,1.00
2023-04-07T16:51:04.341Z,99.90
2023-04-07T16:53:31.415Z,1.00
2023-04-07T16:56:05.370Z,1.00
2023-04-07T16:58:52.346Z,99.90
2023-04-07T17:01:26.358Z,99.90
2023-04-07T17:04:00.500Z,1.00
2023-04-07T17:06:34.347Z,1.00
2023-04-07T17:09:08.413Z,44.40
2023-04-07T17:11:43.354Z,99.90
2023-04-07T17:14:17.364Z,1.00
2023-04-07T17:16:44.409Z,1.00
2023-04-07T17:19:18.372Z,99.90
2023-04-07T17:21:53.361Z,99.90
2023-04-07T17:24:27.357Z,99.90
2023-04-07T17:26:54.569Z,99.90
2023-04-07T17:29:32.378Z,1.00
2023-04-07T17:32:06.360Z,1.00
2023-04-07T17:34:43.372Z,1.00
2023-04-07T17:37:10.474Z,1.00
2023-04-07T17:39:44.331Z,1.00
2023-04-07T17:42:11.713Z,1.00
2023-04-07T17:44:45.391Z,1.00
2023-04-07T17:47:12.562Z,1.00
2023-04-07T17:49:46.382Z,1.00
2023-04-07T17:52:20.350Z,1.00
2023-04-07T17:54:47.865Z,1.00
2023-04-07T17:57:22.351Z,1.00
2023-04-07T17:59:55.998Z,1.00
2023-04-07T18:02:29.570Z,1.00
2023-04-07T18:05:01.114Z,32.20
2023-04-07T18:07:36.388Z,99.90
2023-04-07T18:10:10.354Z,99.90
2023-04-07T18:12:44.377Z,99.90
2023-04-07T18:15:11.662Z,99.90
2023-04-07T18:17:45.387Z,99.90
2023-04-07T18:20:13.302Z,99.90
2023-04-07T18:22:46.426Z,99.90
2023-04-07T18:25:13.610Z,99.90
2023-04-07T18:27:47.357Z,99.90
2023-04-07T18:30:14.377Z,1.00
2023-04-07T18:32:48.409Z,1.00
2023-04-07T18:35:22.379Z,1.00
2023-04-07T18:37:49.838Z,1.00
2023-04-07T18:40:23.361Z,1.00
2023-04-07T18:42:50.558Z,1.00
2023-04-07T18:45:27.378Z,1.00
2023-04-07T18:48:01.548Z,1.00
2023-04-07T18:50:35.554Z,1.00
2023-04-07T18:53:09.504Z,1.00
2023-04-07T18:56:13.436Z,1.00
2023-04-07T18:58:47.637Z,1.00
2023-04-07T19:01:28.498Z,1.00
2023-04-07T19:04:04.669Z,1.00
2023-04-07T19:06:32.319Z,1.00
2023-04-07T19:09:08.435Z,1.00
2023-04-07T19:11:43.428Z,1.00
2023-04-07T19:14:10.843Z,1.00
2023-04-07T19:16:44.590Z,1.00
2023-04-07T19:19:13.279Z,1.00
2023-04-07T19:21:48.546Z,1.00
2023-04-07T19:24:22.403Z,1.00
2023-04-07T19:26:56.381Z,1.00
2023-04-07T19:29:30.389Z,1.00
2023-04-07T19:32:04.595Z,1.00
2023-04-07T19:34:40.867Z,1.00
2023-04-07T19:37:08.334Z,1.00
2023-04-07T19:39:46.890Z,1.00
2023-04-07T19:42:25.470Z,1.00
2023-04-07T19:45:00.431Z,1.00
2023-04-07T19:47:34.619Z,1.00
2023-04-07T19:50:01.850Z,1.00
2023-04-07T19:52:38.400Z,1.00
2023-04-07T19:55:21.740Z,1.00
2023-04-07T19:58:02.527Z,1.00
2023-04-07T20:00:50.408Z,1.00
2023-04-07T20:03:22.213Z,1.00
2023-04-07T20:05:56.402Z,1.00
2023-04-07T20:08:23.567Z,1.00
2023-04-07T20:11:04.420Z,1.00
2023-04-07T20:13:33.200Z,1.00
2023-04-07T20:16:10.568Z,1.00
2023-04-07T20:18:38.529Z,1.00
2023-04-07T20:21:13.508Z,1.00
2023-04-07T20:23:47.618Z,1.00
2023-04-07T20:26:21.430Z,1.00
2023-04-07T20:28:55.368Z,1.00
2023-04-07T20:31:29.446Z,1.00
2023-04-07T20:34:03.424Z,1.00
2023-04-07T20:36:38.393Z,1.00
2023-04-07T20:39:12.403Z,1.00
2023-04-07T20:41:42.862Z,1.00
2023-04-07T20:44:18.453Z,1.00
2023-04-07T20:46:53.400Z,1.00
2023-04-07T20:49:27.422Z,1.00
2023-04-07T20:52:01.381Z,1.00
2023-04-07T20:54:36.388Z,1.00
2023-04-07T20:57:03.581Z,1.00
2023-04-07T20:59:43.421Z,1.00
2023-04-07T21:02:17.488Z,1.00
2023-04-07T21:04:51.434Z,1.00
2023-04-07T21:07:18.440Z,1.50
2023-04-07T21:09:52.411Z,3.20
2023-04-07T21:12:19.467Z,4.00
2023-04-07T21:14:53.433Z,9.30
2023-04-07T21:17:27.432Z,13.20
2023-04-07T21:20:01.431Z,39.10
2023-04-07T21:22:35.400Z,68.70
2023-04-07T21:25:09.411Z,64.90
2023-04-07T21:27:38.386Z,72.30
2023-04-07T21:30:13.501Z,73.60
2023-04-07T21:32:47.458Z,73.10
2023-04-07T21:35:21.443Z,66.40
2023-04-07T21:37:55.406Z,82.30
2023-04-07T21:40:22.771Z,95.20
2023-04-07T21:42:58.454Z,99.90
2023-04-07T21:45:25.758Z,99.90
2023-04-07T21:47:59.418Z,99.90
2023-04-07T21:50:26.712Z,99.90
2023-04-07T21:53:00.388Z,99.90
2023-04-07T21:55:27.442Z,99.90
2023-04-07T21:58:01.384Z,99.90
2023-04-07T22:00:34.459Z,99.90
2023-04-07T22:03:08.527Z,99.90
2023-04-07T22:05:42.530Z,99.90
2023-04-07T22:08:16.472Z,99.90
2023-04-07T22:10:43.764Z,99.90
2023-04-07T22:13:17.386Z,99.90
2023-04-07T22:15:44.785Z,99.90
2023-04-07T22:18:19.723Z,99.90
2023-04-07T22:20:47.890Z,99.90
2023-04-07T22:23:21.426Z,99.90
2023-04-07T22:25:49.378Z,99.90
2023-04-07T22:28:23.436Z,99.90
2023-04-07T22:30:57.417Z,99.90
2023-04-07T22:33:24.468Z,99.90
2023-04-07T22:35:58.503Z,99.90
2023-04-07T22:38:25.741Z,99.90
2023-04-07T22:40:59.476Z,99.90
2023-04-07T22:43:26.643Z,99.90
2023-04-07T22:46:00.399Z,99.90
2023-04-07T22:48:34.429Z,99.90
2023-04-07T22:51:02.123Z,99.90
2023-04-07T22:53:35.433Z,99.90
2023-04-07T22:56:02.704Z,99.90
2023-04-07T22:58:36.450Z,99.90
2023-04-07T23:01:10.466Z,99.90
2023-04-07T23:03:37.727Z,99.90
2023-04-07T23:06:11.376Z,99.90
2023-04-07T23:08:45.414Z,99.90
2023-04-07T23:11:20.962Z,99.90
2023-04-07T23:13:49.199Z,99.90
2023-04-07T23:16:23.487Z,99.90
2023-04-07T23:18:50.886Z,99.90
2023-04-07T23:21:24.446Z,99.90
2023-04-07T23:23:51.437Z,99.90
2023-04-07T23:26:25.427Z,99.90
2023-04-07T23:28:52.509Z,99.90
2023-04-07T23:31:19.584Z,99.90
2023-04-07T23:33:54.458Z,99.90
2023-04-07T23:36:21.517Z,99.90
2023-04-07T23:38:55.397Z,99.90
2023-04-07T23:41:23.304Z,99.90
2023-04-07T23:43:56.435Z,99.90
2023-04-07T23:46:30.442Z,99.90
2023-04-07T23:49:04.465Z,99.90
2023-04-07T23:51:31.873Z,99.90
2023-04-07T23:54:05.432Z,99.90
2023-04-07T23:56:40.440Z,99.90
2023-04-07T23:59:20.976Z,99.90
